Time,TemperatureF,DewpointF,PressureIn,WindDirection,WindDirectionDegrees,WindSpeedMPH,WindSpeedGustMPH,Humidity,HourlyPrecipIn,Conditions,Clouds,dailyrainin,SoftwareType,DateUTC
2013-08-01 00:23:00,52.0,51.0,-100.00,SW,220,0.0,1.0,95,-99.99,,,-99.99,,2013-08-01 05:23:00,
2013-08-01 00:33:00,52.0,51.0,-100.00,SW,220,0.0,1.0,95,-99.99,,,-99.99,,2013-08-01 05:33:00,
2013-08-01 00:43:00,52.0,51.0,-100.00,SW,220,0.0,1.0,95,-99.99,,,-99.99,,2013-08-01 05:43:00,
2013-08-01 00:53:00,52.0,51.0,-100.00,SW,220,0.0,1.0,95,-99.99,,,-99.99,,2013-08-01 05:53:00,
2013-08-01 01:02:00,52.0,51.0,-100.00,SW,220,0.0,1.0,95,-99.99,,,-99.99,,2013-08-01 06:02:00,
2013-08-01 01:23:00,51.0,50.0,-100.00,West,265,1.0,3.0,97,-99.99,,,-99.99,,2013-08-01 06:23:00,
2013-08-01 01:33:00,51.0,50.0,-100.00,West,265,1.0,3.0,97,-99.99,,,-99.99,,2013-08-01 06:33:00,
2013-08-01 01:43:00,51.0,50.0,-100.00,West,265,1.0,3.0,97,-99.99,,,-99.99,,2013-08-01 06:43:00,
2013-08-01 01:53:00,51.0,50.0,-100.00,West,265,1.0,3.0,97,-99.99,,,-99.99,,2013-08-01 06:53:00,
2013-08-01 02:02:00,50.0,50.0,-100.00,NW,315,1.0,2.0,98,-99.99,,,-99.99,,2013-08-01 07:02:00,
2013-08-01 02:23:00,50.0,50.0,-100.00,NW,315,1.0,2.0,98,-99.99,,,-99.99,,2013-08-01 07:23:00,
2013-08-01 02:32:00,50.0,50.0,-100.00,NW,315,1.0,2.0,98,-99.99,,,-99.99,,2013-08-01 07:32:00,
2013-08-01 02:43:00,50.0,50.0,-100.00,NW,315,1.0,2.0,98,-99.99,,,-99.99,,2013-08-01 07:43:00,
2013-08-01 02:55:00,50.0,50.0,-100.00,NW,315,1.0,2.0,98,-99.99,,,-99.99,,2013-08-01 07:55:00,
2013-08-01 03:29:00,51.0,50.0,-100.00,NNW,345,0.0,2.0,98,-99.99,,,-99.99,,2013-08-01 08:29:00,
2013-08-01 03:48:00,51.0,50.0,-100.00,NNW,345,0.0,2.0,98,-99.99,,,-99.99,,2013-08-01 08:48:00,
2013-08-01 05:01:00,53.0,52.0,-100.00,WSW,250,0.0,2.0,98,-99.99,,,-99.99,,2013-08-01 10:01:00,
2013-08-01 05:33:00,53.0,52.0,-100.00,WSW,250,0.0,2.0,98,-99.99,,,-99.99,,2013-08-01 10:33:00,
2013-08-01 05:48:00,53.0,52.0,-100.00,WSW,250,0.0,2.0,98,-99.99,,,-99.99,,2013-08-01 10:48:00,
2013-08-01 05:59:00,53.0,52.0,-100.00,WSW,250,0.0,2.0,98,-99.99,,,-99.99,,2013-08-01 10:59:00,
2013-08-01 06:02:00,53.0,53.0,-100.00,NNW,335,2.0,4.0,98,-99.99,,,-99.99,,2013-08-01 11:02:00,
2013-08-01 06:38:00,53.0,53.0,-100.00,NNW,335,2.0,4.0,98,-99.99,,,-99.99,,2013-08-01 11:38:00,
2013-08-01 06:48:00,53.0,53.0,-100.00,NNW,335,2.0,4.0,98,-99.99,,,-99.99,,2013-08-01 11:48:00,
2013-08-01 07:02:00,55.0,54.0,-100.00,West,275,2.0,5.0,96,-99.99,,,-99.99,,2013-08-01 12:02:00,
2013-08-01 08:02:00,60.0,53.0,-100.00,NNW,335,3.0,9.0,77,-99.99,,,-99.99,,2013-08-01 13:02:00,
2013-08-01 08:36:00,60.0,53.0,-100.00,NNW,335,3.0,9.0,77,-99.99,,,-99.99,,2013-08-01 13:36:00,
2013-08-01 08:47:00,60.0,53.0,-100.00,NNW,335,3.0,9.0,77,-99.99,,,-99.99,,2013-08-01 13:47:00,
2013-08-01 08:55:00,60.0,53.0,-100.00,NNW,335,3.0,9.0,77,-99.99,,,-99.99,,2013-08-01 13:55:00,
2013-08-01 10:02:00,67.0,51.0,-100.00,NW,325,6.0,17.0,56,-99.99,,,-99.99,,2013-08-01 15:02:00,
2013-08-01 10:34:00,67.0,51.0,-100.00,NW,325,6.0,17.0,56,-99.99,,,-99.99,,2013-08-01 15:34:00,
2013-08-01 10:40:00,67.0,51.0,-100.00,NW,325,6.0,17.0,56,-99.99,,,-99.99,,2013-08-01 15:40:00,
2013-08-01 10:54:00,67.0,51.0,-100.00,NW,325,6.0,17.0,56,-99.99,,,-99.99,,2013-08-01 15:54:00,
2013-08-01 13:02:00,71.0,48.0,-100.00,North,0,9.0,16.0,44,-99.99,,,-99.99,,2013-08-01 18:02:00,
2013-08-01 13:36:00,71.0,48.0,-100.00,North,0,9.0,16.0,44,-99.99,,,-99.99,,2013-08-01 18:36:00,
2013-08-01 13:55:00,71.0,48.0,-100.00,North,0,9.0,16.0,44,-99.99,,,-99.99,,2013-08-01 18:55:00,
2013-08-01 14:01:00,71.0,48.0,-100.00,North,0,9.0,16.0,44,-99.99,,,-99.99,,2013-08-01 19:01:00,
2013-08-01 14:02:00,73.0,47.0,-100.00,NNW,335,5.0,17.0,39,-99.99,,,-99.99,,2013-08-01 19:02:00,
2013-08-01 14:34:00,73.0,47.0,-100.00,NNW,335,5.0,17.0,39,-99.99,,,-99.99,,2013-08-01 19:34:00,
2013-08-01 14:44:00,73.0,47.0,-100.00,NNW,335,5.0,17.0,39,-99.99,,,-99.99,,2013-08-01 19:44:00,
2013-08-01 15:52:00,72.0,44.0,-100.00,NNW,345,14.0,21.0,37,-99.99,,,-99.99,,2013-08-01 20:52:00,
2013-08-01 15:58:00,72.0,44.0,-100.00,NNW,345,14.0,21.0,37,-99.99,,,-99.99,,2013-08-01 20:58:00,
2013-08-01 16:01:00,73.0,45.0,-100.00,North,0,7.0,16.0,37,-99.99,,,-99.99,,2013-08-01 21:01:00,
2013-08-01 16:28:00,73.0,45.0,-100.00,North,0,7.0,16.0,37,-99.99,,,-99.99,,2013-08-01 21:28:00,
2013-08-01 16:35:00,73.0,45.0,-100.00,North,0,7.0,16.0,37,-99.99,,,-99.99,,2013-08-01 21:35:00,
2013-08-01 16:43:00,73.0,45.0,-100.00,North,0,7.0,16.0,37,-99.99,,,-99.99,,2013-08-01 21:43:00,
2013-08-01 16:53:00,73.0,45.0,-100.00,North,0,7.0,16.0,37,-99.99,,,-99.99,,2013-08-01 21:53:00,
2013-08-01 20:31:00,69.0,46.0,-100.00,NW,320,3.0,7.0,45,-99.99,,,-99.99,,2013-08-02 01:31:00,
2013-08-01 20:42:00,69.0,46.0,-100.00,NW,320,3.0,7.0,45,-99.99,,,-99.99,,2013-08-02 01:42:00,
2013-08-01 20:49:00,69.0,46.0,-100.00,NW,320,3.0,7.0,45,-99.99,,,-99.99,,2013-08-02 01:49:00,
2013-08-01 21:00:00,69.0,46.0,-100.00,NW,320,3.0,7.0,45,-99.99,,,-99.99,,2013-08-02 02:00:00,
2013-08-01 21:03:00,65.0,49.0,-100.00,SSW,205,0.0,1.0,56,-99.99,,,-99.99,,2013-08-02 02:03:00,
2013-08-01 21:28:00,65.0,49.0,-100.00,SSW,205,0.0,1.0,56,-99.99,,,-99.99,,2013-08-02 02:28:00,
2013-08-01 21:37:00,65.0,49.0,-100.00,SSW,205,0.0,1.0,56,-99.99,,,-99.99,,2013-08-02 02:37:00,
2013-08-01 21:45:00,65.0,49.0,-100.00,SSW,205,0.0,1.0,56,-99.99,,,-99.99,,2013-08-02 02:45:00,
2013-08-01 22:01:00,61.0,53.0,-100.00,South,170,1.0,2.0,74,-99.99,,,-99.99,,2013-08-02 03:01:00,
2013-08-01 22:23:00,61.0,53.0,-100.00,South,170,1.0,2.0,74,-99.99,,,-99.99,,2013-08-02 03:23:00,
2013-08-01 22:40:00,61.0,53.0,-100.00,South,170,1.0,2.0,74,-99.99,,,-99.99,,2013-08-02 03:40:00,
2013-08-01 22:52:00,61.0,53.0,-100.00,South,170,1.0,2.0,74,-99.99,,,-99.99,,2013-08-02 03:52:00,
2013-08-01 23:00:00,61.0,53.0,-100.00,South,170,1.0,2.0,74,-99.99,,,-99.99,,2013-08-02 04:00:00,
2013-08-01 23:01:00,58.0,54.0,-100.00,SSE,155,0.0,1.0,87,-99.99,,,-99.99,,2013-08-02 04:01:00,
2013-08-01 23:22:00,58.0,54.0,-100.00,SSE,155,0.0,1.0,87,-99.99,,,-99.99,,2013-08-02 04:22:00,
2013-08-01 23:33:00,58.0,54.0,-100.00,SSE,155,0.0,1.0,87,-99.99,,,-99.99,,2013-08-02 04:33:00,
2013-08-01 23:43:00,58.0,54.0,-100.00,SSE,155,0.0,1.0,87,-99.99,,,-99.99,,2013-08-02 04:43:00,
2013-08-01 23:53:00,58.0,54.0,-100.00,SSE,155,0.0,1.0,87,-99.99,,,-99.99,,2013-08-02 04:53:00,